sensor_id;sensor_type;location;lat;lon;timestamp;P1;durP1;ratioP1;P2;durP2;ratioP2
8797;SDS011;4435;50.898;4.734;2023-02-15T00:01:47;20.60;;;16.60;;
8797;SDS011;4435;50.898;4.734;2023-02-15T00:04:14;20.17;;;16.40;;
8797;SDS011;4435;50.898;4.734;2023-02-15T00:06:41;18.77;;;15.73;;
8797;SDS011;4435;50.898;4.734;2023-02-15T00:09:08;20.27;;;16.00;;
8797;SDS011;4435;50.898;4.734;2023-02-15T00:11:35;18.17;;;16.13;;
8797;SDS011;4435;50.898;4.734;2023-02-15T00:14:19;18.77;;;15.63;;
8797;SDS011;4435;50.898;4.734;2023-02-15T00:16:47;18.60;;;15.50;;
8797;SDS011;4435;50.898;4.734;2023-02-15T00:19:15;20.53;;;16.40;;
8797;SDS011;4435;50.898;4.734;2023-02-15T00:21:42;21.13;;;16.60;;
8797;SDS011;4435;50.898;4.734;2023-02-15T00:24:09;20.73;;;16.43;;
8797;SDS011;4435;50.898;4.734;2023-02-15T00:26:37;17.90;;;15.93;;
8797;SDS011;4435;50.898;4.734;2023-02-15T00:29:04;19.60;;;16.27;;
8797;SDS011;4435;50.898;4.734;2023-02-15T00:31:30;19.43;;;15.87;;
8797;SDS011;4435;50.898;4.734;2023-02-15T00:34:07;18.43;;;15.77;;
8797;SDS011;4435;50.898;4.734;2023-02-15T00:36:38;19.47;;;16.67;;
8797;SDS011;4435;50.898;4.734;2023-02-15T00:39:04;20.57;;;16.60;;
8797;SDS011;4435;50.898;4.734;2023-02-15T00:41:31;18.90;;;16.03;;
8797;SDS011;4435;50.898;4.734;2023-02-15T00:43:57;20.27;;;16.40;;
8797;SDS011;4435;50.898;4.734;2023-02-15T00:46:23;18.90;;;15.50;;
8797;SDS011;4435;50.898;4.734;2023-02-15T00:48:49;18.57;;;15.57;;
8797;SDS011;4435;50.898;4.734;2023-02-15T00:51:15;19.10;;;15.80;;
8797;SDS011;4435;50.898;4.734;2023-02-15T00:53:42;18.70;;;15.87;;
8797;SDS011;4435;50.898;4.734;2023-02-15T00:56:09;18.33;;;15.43;;
8797;SDS011;4435;50.898;4.734;2023-02-15T00:58:36;20.20;;;16.43;;
8797;SDS011;4435;50.898;4.734;2023-02-15T01:01:02;20.43;;;16.57;;
8797;SDS011;4435;50.898;4.734;2023-02-15T01:03:30;17.00;;;14.97;;
8797;SDS011;4435;50.898;4.734;2023-02-15T01:05:56;20.00;;;15.63;;
8797;SDS011;4435;50.898;4.734;2023-02-15T01:08:21;19.70;;;16.40;;
8797;SDS011;4435;50.898;4.734;2023-02-15T01:10:47;18.63;;;16.00;;
8797;SDS011;4435;50.898;4.734;2023-02-15T01:13:15;20.43;;;16.30;;
8797;SDS011;4435;50.898;4.734;2023-02-15T01:15:42;19.40;;;16.07;;
8797;SDS011;4435;50.898;4.734;2023-02-15T01:18:08;21.27;;;16.67;;
8797;SDS011;4435;50.898;4.734;2023-02-15T01:20:35;19.87;;;15.87;;
8797;SDS011;4435;50.898;4.734;2023-02-15T01:23:04;20.13;;;15.93;;
8797;SDS011;4435;50.898;4.734;2023-02-15T01:25:32;19.17;;;16.03;;
8797;SDS011;4435;50.898;4.734;2023-02-15T01:27:59;21.00;;;16.47;;
8797;SDS011;4435;50.898;4.734;2023-02-15T01:30:24;19.83;;;16.27;;
8797;SDS011;4435;50.898;4.734;2023-02-15T01:32:50;20.83;;;15.57;;
8797;SDS011;4435;50.898;4.734;2023-02-15T01:35:16;19.93;;;15.93;;
8797;SDS011;4435;50.898;4.734;2023-02-15T01:37:42;21.73;;;15.83;;
8797;SDS011;4435;50.898;4.734;2023-02-15T01:40:10;20.73;;;16.33;;
8797;SDS011;4435;50.898;4.734;2023-02-15T01:42:38;20.60;;;17.10;;
8797;SDS011;4435;50.898;4.734;2023-02-15T01:45:18;19.73;;;16.07;;
8797;SDS011;4435;50.898;4.734;2023-02-15T01:48:06;20.90;;;16.47;;
8797;SDS011;4435;50.898;4.734;2023-02-15T01:50:52;19.57;;;15.53;;
8797;SDS011;4435;50.898;4.734;2023-02-15T01:53:24;19.50;;;15.70;;
8797;SDS011;4435;50.898;4.734;2023-02-15T01:55:59;20.27;;;16.13;;
8797;SDS011;4435;50.898;4.734;2023-02-15T01:58:31;19.47;;;16.37;;
8797;SDS011;4435;50.898;4.734;2023-02-15T02:00:59;21.57;;;15.70;;
8797;SDS011;4435;50.898;4.734;2023-02-15T02:03:31;20.57;;;16.23;;
8797;SDS011;4435;50.898;4.734;2023-02-15T02:06:08;16.97;;;14.43;;
8797;SDS011;4435;50.898;4.734;2023-02-15T02:08:35;20.40;;;15.10;;
8797;SDS011;4435;50.898;4.734;2023-02-15T02:11:01;17.60;;;15.67;;
8797;SDS011;4435;50.898;4.734;2023-02-15T02:13:26;18.47;;;15.27;;
8797;SDS011;4435;50.898;4.734;2023-02-15T02:16:12;19.50;;;15.70;;
8797;SDS011;4435;50.898;4.734;2023-02-15T02:33:57;20.23;;;15.20;;
8797;SDS011;4435;50.898;4.734;2023-02-15T02:36:34;18.80;;;15.73;;
8797;SDS011;4435;50.898;4.734;2023-02-15T02:39:13;19.00;;;15.80;;
8797;SDS011;4435;50.898;4.734;2023-02-15T02:41:57;19.37;;;15.00;;
8797;SDS011;4435;50.898;4.734;2023-02-15T02:44:48;17.70;;;15.17;;
8797;SDS011;4435;50.898;4.734;2023-02-15T02:47:19;20.10;;;15.50;;
8797;SDS011;4435;50.898;4.734;2023-02-15T02:50:09;20.47;;;15.53;;
8797;SDS011;4435;50.898;4.734;2023-02-15T02:52:46;20.23;;;16.00;;
8797;SDS011;4435;50.898;4.734;2023-02-15T02:57:52;19.90;;;15.90;;
8797;SDS011;4435;50.898;4.734;2023-02-15T03:00:19;18.73;;;15.27;;
8797;SDS011;4435;50.898;4.734;2023-02-15T03:02:47;20.87;;;16.03;;
8797;SDS011;4435;50.898;4.734;2023-02-15T03:05:19;19.57;;;15.70;;
8797;SDS011;4435;50.898;4.734;2023-02-15T03:07:50;18.60;;;15.57;;
8797;SDS011;4435;50.898;4.734;2023-02-15T03:10:18;21.43;;;16.27;;
8797;SDS011;4435;50.898;4.734;2023-02-15T03:12:47;19.97;;;15.27;;
8797;SDS011;4435;50.898;4.734;2023-02-15T03:15:20;20.37;;;16.00;;
8797;SDS011;4435;50.898;4.734;2023-02-15T03:17:55;19.17;;;15.33;;
8797;SDS011;4435;50.898;4.734;2023-02-15T03:20:32;18.90;;;15.33;;
8797;SDS011;4435;50.898;4.734;2023-02-15T03:23:04;20.03;;;15.93;;
8797;SDS011;4435;50.898;4.734;2023-02-15T03:25:37;17.53;;;14.83;;
8797;SDS011;4435;50.898;4.734;2023-02-15T03:28:19;18.50;;;15.40;;
8797;SDS011;4435;50.898;4.734;2023-02-15T03:31:08;20.13;;;15.40;;
8797;SDS011;4435;50.898;4.734;2023-02-15T03:33:37;17.90;;;15.37;;
8797;SDS011;4435;50.898;4.734;2023-02-15T03:36:24;19.50;;;16.17;;
8797;SDS011;4435;50.898;4.734;2023-02-15T03:38:59;18.57;;;15.57;;
8797;SDS011;4435;50.898;4.734;2023-02-15T03:44:59;20.03;;;16.57;;
8797;SDS011;4435;50.898;4.734;2023-02-15T03:47:39;18.70;;;15.40;;
8797;SDS011;4435;50.898;4.734;2023-02-15T03:50:19;18.87;;;15.93;;
8797;SDS011;4435;50.898;4.734;2023-02-15T03:53:09;18.10;;;15.43;;
8797;SDS011;4435;50.898;4.734;2023-02-15T03:55:38;19.93;;;16.13;;
8797;SDS011;4435;50.898;4.734;2023-02-15T03:58:03;19.30;;;15.57;;
8797;SDS011;4435;50.898;4.734;2023-02-15T04:00:57;19.80;;;15.63;;
8797;SDS011;4435;50.898;4.734;2023-02-15T04:03:45;20.57;;;16.43;;
8797;SDS011;4435;50.898;4.734;2023-02-15T04:06:24;19.90;;;15.87;;
8797;SDS011;4435;50.898;4.734;2023-02-15T04:08:49;19.67;;;15.80;;
8797;SDS011;4435;50.898;4.734;2023-02-15T04:11:33;19.93;;;16.47;;
8797;SDS011;4435;50.898;4.734;2023-02-15T04:13:59;21.67;;;15.83;;
8797;SDS011;4435;50.898;4.734;2023-02-15T04:16:45;21.50;;;16.03;;
8797;SDS011;4435;50.898;4.734;2023-02-15T04:19:10;21.20;;;15.60;;
8797;SDS011;4435;50.898;4.734;2023-02-15T04:21:55;20.80;;;16.07;;
8797;SDS011;4435;50.898;4.734;2023-02-15T04:24:39;22.53;;;16.80;;
8797;SDS011;4435;50.898;4.734;2023-02-15T04:27:23;21.00;;;16.43;;
8797;SDS011;4435;50.898;4.734;2023-02-15T04:29:49;22.77;;;16.90;;
8797;SDS011;4435;50.898;4.734;2023-02-15T04:32:15;20.27;;;15.67;;
8797;SDS011;4435;50.898;4.734;2023-02-15T04:34:40;20.90;;;16.50;;
8797;SDS011;4435;50.898;4.734;2023-02-15T04:37:06;20.90;;;16.07;;
8797;SDS011;4435;50.898;4.734;2023-02-15T04:39:32;20.50;;;16.03;;
8797;SDS011;4435;50.898;4.734;2023-02-15T04:41:57;22.33;;;17.10;;
8797;SDS011;4435;50.898;4.734;2023-02-15T04:44:23;24.33;;;16.73;;
8797;SDS011;4435;50.898;4.734;2023-02-15T04:46:49;22.07;;;16.87;;
8797;SDS011;4435;50.898;4.734;2023-02-15T04:49:14;19.80;;;15.80;;
8797;SDS011;4435;50.898;4.734;2023-02-15T04:51:40;21.60;;;16.37;;
8797;SDS011;4435;50.898;4.734;2023-02-15T04:54:06;19.37;;;15.43;;
8797;SDS011;4435;50.898;4.734;2023-02-15T04:56:31;20.60;;;16.23;;
8797;SDS011;4435;50.898;4.734;2023-02-15T04:58:59;21.30;;;16.27;;
8797;SDS011;4435;50.898;4.734;2023-02-15T05:01:25;24.13;;;16.47;;
8797;SDS011;4435;50.898;4.734;2023-02-15T05:03:51;22.30;;;16.17;;
8797;SDS011;4435;50.898;4.734;2023-02-15T05:06:17;21.63;;;16.03;;
8797;SDS011;4435;50.898;4.734;2023-02-15T05:08:42;19.70;;;15.73;;
8797;SDS011;4435;50.898;4.734;2023-02-15T05:11:08;21.70;;;16.40;;
8797;SDS011;4435;50.898;4.734;2023-02-15T05:13:34;20.70;;;15.47;;
8797;SDS011;4435;50.898;4.734;2023-02-15T05:15:59;23.33;;;15.87;;
8797;SDS011;4435;50.898;4.734;2023-02-15T05:18:28;22.20;;;16.67;;
8797;SDS011;4435;50.898;4.734;2023-02-15T05:20:54;22.60;;;16.13;;
8797;SDS011;4435;50.898;4.734;2023-02-15T05:23:19;20.80;;;16.07;;
8797;SDS011;4435;50.898;4.734;2023-02-15T05:25:49;23.73;;;16.83;;
8797;SDS011;4435;50.898;4.734;2023-02-15T05:28:34;24.37;;;16.67;;
8797;SDS011;4435;50.898;4.734;2023-02-15T05:33:37;23.10;;;17.07;;
8797;SDS011;4435;50.898;4.734;2023-02-15T05:36:03;21.90;;;16.33;;
8797;SDS011;4435;50.898;4.734;2023-02-15T05:38:29;20.23;;;16.20;;
8797;SDS011;4435;50.898;4.734;2023-02-15T05:40:55;21.83;;;16.63;;
8797;SDS011;4435;50.898;4.734;2023-02-15T05:43:22;24.60;;;17.37;;
8797;SDS011;4435;50.898;4.734;2023-02-15T05:45:48;22.40;;;16.93;;
8797;SDS011;4435;50.898;4.734;2023-02-15T05:48:16;21.93;;;16.17;;
8797;SDS011;4435;50.898;4.734;2023-02-15T05:50:43;23.30;;;16.87;;
8797;SDS011;4435;50.898;4.734;2023-02-15T05:53:08;23.53;;;16.77;;
8797;SDS011;4435;50.898;4.734;2023-02-15T05:55:36;23.13;;;16.50;;
8797;SDS011;4435;50.898;4.734;2023-02-15T05:58:03;20.87;;;15.93;;
8797;SDS011;4435;50.898;4.734;2023-02-15T06:00:29;23.07;;;17.03;;
8797;SDS011;4435;50.898;4.734;2023-02-15T06:02:55;22.17;;;16.87;;
8797;SDS011;4435;50.898;4.734;2023-02-15T06:05:20;23.97;;;16.40;;
8797;SDS011;4435;50.898;4.734;2023-02-15T06:07:46;21.57;;;15.93;;
8797;SDS011;4435;50.898;4.734;2023-02-15T06:10:12;22.33;;;16.60;;
8797;SDS011;4435;50.898;4.734;2023-02-15T06:12:38;24.30;;;17.03;;
8797;SDS011;4435;50.898;4.734;2023-02-15T06:15:03;22.67;;;17.23;;
8797;SDS011;4435;50.898;4.734;2023-02-15T06:17:29;22.77;;;16.27;;
8797;SDS011;4435;50.898;4.734;2023-02-15T06:19:55;20.87;;;15.93;;
8797;SDS011;4435;50.898;4.734;2023-02-15T06:22:21;21.70;;;16.97;;
8797;SDS011;4435;50.898;4.734;2023-02-15T06:24:47;22.87;;;16.20;;
8797;SDS011;4435;50.898;4.734;2023-02-15T06:27:12;23.67;;;16.17;;
8797;SDS011;4435;50.898;4.734;2023-02-15T06:29:38;21.47;;;15.97;;
8797;SDS011;4435;50.898;4.734;2023-02-15T06:32:04;20.77;;;16.47;;
8797;SDS011;4435;50.898;4.734;2023-02-15T06:34:30;22.13;;;15.90;;
8797;SDS011;4435;50.898;4.734;2023-02-15T06:36:56;21.93;;;16.37;;
8797;SDS011;4435;50.898;4.734;2023-02-15T06:39:22;21.97;;;16.00;;
8797;SDS011;4435;50.898;4.734;2023-02-15T06:41:47;21.57;;;16.00;;
8797;SDS011;4435;50.898;4.734;2023-02-15T06:44:13;19.33;;;15.37;;
8797;SDS011;4435;50.898;4.734;2023-02-15T06:46:39;20.50;;;15.70;;
8797;SDS011;4435;50.898;4.734;2023-02-15T06:49:04;21.80;;;16.60;;
8797;SDS011;4435;50.898;4.734;2023-02-15T06:51:30;20.60;;;16.10;;
8797;SDS011;4435;50.898;4.734;2023-02-15T06:53:56;22.63;;;16.33;;
8797;SDS011;4435;50.898;4.734;2023-02-15T06:56:22;18.67;;;14.93;;
8797;SDS011;4435;50.898;4.734;2023-02-15T06:58:48;21.97;;;16.27;;
8797;SDS011;4435;50.898;4.734;2023-02-15T07:01:17;19.80;;;15.50;;
8797;SDS011;4435;50.898;4.734;2023-02-15T07:03:43;22.63;;;16.83;;
8797;SDS011;4435;50.898;4.734;2023-02-15T07:06:09;21.67;;;16.10;;
8797;SDS011;4435;50.898;4.734;2023-02-15T07:08:36;21.10;;;15.90;;
8797;SDS011;4435;50.898;4.734;2023-02-15T07:11:03;24.30;;;16.27;;
8797;SDS011;4435;50.898;4.734;2023-02-15T07:13:48;24.40;;;15.87;;
8797;SDS011;4435;50.898;4.734;2023-02-15T07:16:14;21.50;;;16.27;;
8797;SDS011;4435;50.898;4.734;2023-02-15T07:18:40;20.10;;;16.67;;
8797;SDS011;4435;50.898;4.734;2023-02-15T07:21:06;21.50;;;15.87;;
8797;SDS011;4435;50.898;4.734;2023-02-15T07:23:36;24.73;;;16.27;;
8797;SDS011;4435;50.898;4.734;2023-02-15T07:26:03;21.57;;;15.67;;
8797;SDS011;4435;50.898;4.734;2023-02-15T07:28:29;19.30;;;15.10;;
8797;SDS011;4435;50.898;4.734;2023-02-15T07:30:57;20.77;;;15.50;;
8797;SDS011;4435;50.898;4.734;2023-02-15T07:33:23;20.80;;;15.30;;
8797;SDS011;4435;50.898;4.734;2023-02-15T07:35:50;20.67;;;14.87;;
8797;SDS011;4435;50.898;4.734;2023-02-15T07:38:18;21.17;;;14.57;;
8797;SDS011;4435;50.898;4.734;2023-02-15T07:40:44;23.23;;;15.50;;
8797;SDS011;4435;50.898;4.734;2023-02-15T07:43:10;20.93;;;14.83;;
8797;SDS011;4435;50.898;4.734;2023-02-15T07:45:37;20.53;;;15.80;;
8797;SDS011;4435;50.898;4.734;2023-02-15T07:48:03;18.93;;;14.67;;
8797;SDS011;4435;50.898;4.734;2023-02-15T07:50:30;19.80;;;15.00;;
8797;SDS011;4435;50.898;4.734;2023-02-15T07:52:57;25.43;;;15.40;;
8797;SDS011;4435;50.898;4.734;2023-02-15T07:55:23;19.47;;;15.43;;
8797;SDS011;4435;50.898;4.734;2023-02-15T07:57:50;20.60;;;15.20;;
8797;SDS011;4435;50.898;4.734;2023-02-15T08:00:17;20.33;;;15.23;;
8797;SDS011;4435;50.898;4.734;2023-02-15T08:02:56;17.80;;;14.27;;
8797;SDS011;4435;50.898;4.734;2023-02-15T08:05:41;19.50;;;14.67;;
8797;SDS011;4435;50.898;4.734;2023-02-15T08:08:10;20.27;;;14.17;;
8797;SDS011;4435;50.898;4.734;2023-02-15T08:11:02;21.17;;;14.60;;
8797;SDS011;4435;50.898;4.734;2023-02-15T08:16:38;18.63;;;14.33;;
8797;SDS011;4435;50.898;4.734;2023-02-15T08:19:17;18.93;;;15.73;;
8797;SDS011;4435;50.898;4.734;2023-02-15T08:21:51;18.73;;;15.03;;
8797;SDS011;4435;50.898;4.734;2023-02-15T08:24:25;21.30;;;15.23;;
8797;SDS011;4435;50.898;4.734;2023-02-15T08:26:55;18.10;;;14.60;;
8797;SDS011;4435;50.898;4.734;2023-02-15T08:29:23;19.90;;;15.20;;
8797;SDS011;4435;50.898;4.734;2023-02-15T08:31:59;17.77;;;14.90;;
8797;SDS011;4435;50.898;4.734;2023-02-15T08:34:28;21.03;;;15.37;;
8797;SDS011;4435;50.898;4.734;2023-02-15T08:36:56;18.57;;;15.13;;
8797;SDS011;4435;50.898;4.734;2023-02-15T08:39:22;19.53;;;15.23;;
8797;SDS011;4435;50.898;4.734;2023-02-15T08:41:48;19.33;;;15.37;;
8797;SDS011;4435;50.898;4.734;2023-02-15T08:44:15;20.70;;;16.23;;
8797;SDS011;4435;50.898;4.734;2023-02-15T08:46:42;20.20;;;15.00;;
8797;SDS011;4435;50.898;4.734;2023-02-15T08:49:10;20.87;;;16.30;;
8797;SDS011;4435;50.898;4.734;2023-02-15T08:51:38;19.07;;;14.53;;
8797;SDS011;4435;50.898;4.734;2023-02-15T08:54:08;19.77;;;15.40;;
8797;SDS011;4435;50.898;4.734;2023-02-15T08:56:38;19.70;;;16.00;;
8797;SDS011;4435;50.898;4.734;2023-02-15T08:59:05;18.90;;;15.20;;
8797;SDS011;4435;50.898;4.734;2023-02-15T09:01:33;20.00;;;15.63;;
8797;SDS011;4435;50.898;4.734;2023-02-15T09:04:03;21.97;;;16.93;;
8797;SDS011;4435;50.898;4.734;2023-02-15T09:06:33;19.27;;;15.70;;
8797;SDS011;4435;50.898;4.734;2023-02-15T09:08:59;19.83;;;16.40;;
8797;SDS011;4435;50.898;4.734;2023-02-15T09:11:29;20.07;;;15.80;;
8797;SDS011;4435;50.898;4.734;2023-02-15T09:14:02;24.00;;;16.73;;
8797;SDS011;4435;50.898;4.734;2023-02-15T09:16:34;20.77;;;15.80;;
8797;SDS011;4435;50.898;4.734;2023-02-15T09:19:01;20.13;;;16.03;;
8797;SDS011;4435;50.898;4.734;2023-02-15T09:21:30;21.63;;;16.10;;
8797;SDS011;4435;50.898;4.734;2023-02-15T09:23:57;21.23;;;15.70;;
8797;SDS011;4435;50.898;4.734;2023-02-15T09:26:25;19.83;;;14.77;;
8797;SDS011;4435;50.898;4.734;2023-02-15T09:28:53;20.17;;;15.20;;
8797;SDS011;4435;50.898;4.734;2023-02-15T09:31:22;19.53;;;15.17;;
8797;SDS011;4435;50.898;4.734;2023-02-15T09:33:50;21.33;;;15.60;;
8797;SDS011;4435;50.898;4.734;2023-02-15T09:36:17;18.00;;;14.87;;
8797;SDS011;4435;50.898;4.734;2023-02-15T09:38:50;18.43;;;14.70;;
8797;SDS011;4435;50.898;4.734;2023-02-15T09:47:00;18.83;;;14.53;;
8797;SDS011;4435;50.898;4.734;2023-02-15T09:49:54;17.27;;;14.10;;
8797;SDS011;4435;50.898;4.734;2023-02-15T09:54:56;15.50;;;13.50;;
8797;SDS011;4435;50.898;4.734;2023-02-15T09:57:28;15.93;;;14.13;;
8797;SDS011;4435;50.898;4.734;2023-02-15T10:10:30;15.57;;;13.50;;
8797;SDS011;4435;50.898;4.734;2023-02-15T10:15:57;16.00;;;13.27;;
8797;SDS011;4435;50.898;4.734;2023-02-15T10:24:17;19.83;;;14.13;;
8797;SDS011;4435;50.898;4.734;2023-02-15T10:27:11;16.50;;;13.57;;
8797;SDS011;4435;50.898;4.734;2023-02-15T10:29:39;15.73;;;12.90;;
8797;SDS011;4435;50.898;4.734;2023-02-15T10:32:16;16.93;;;13.77;;
8797;SDS011;4435;50.898;4.734;2023-02-15T10:48:42;17.03;;;13.23;;
8797;SDS011;4435;50.898;4.734;2023-02-15T10:54:31;20.30;;;13.37;;
8797;SDS011;4435;50.898;4.734;2023-02-15T10:57:32;15.53;;;12.40;;
8797;SDS011;4435;50.898;4.734;2023-02-15T11:00:05;14.73;;;12.63;;
8797;SDS011;4435;50.898;4.734;2023-02-15T11:08:03;15.27;;;12.57;;
8797;SDS011;4435;50.898;4.734;2023-02-15T11:10:47;16.67;;;13.37;;
8797;SDS011;4435;50.898;4.734;2023-02-15T11:13:20;17.37;;;12.97;;
8797;SDS011;4435;50.898;4.734;2023-02-15T11:15:58;20.07;;;13.27;;
8797;SDS011;4435;50.898;4.734;2023-02-15T11:18:30;17.97;;;13.37;;
8797;SDS011;4435;50.898;4.734;2023-02-15T11:21:22;18.57;;;14.07;;
8797;SDS011;4435;50.898;4.734;2023-02-15T11:23:57;17.10;;;13.30;;
8797;SDS011;4435;50.898;4.734;2023-02-15T11:26:31;17.07;;;13.33;;
8797;SDS011;4435;50.898;4.734;2023-02-15T11:31:54;15.60;;;12.93;;
8797;SDS011;4435;50.898;4.734;2023-02-15T11:37:01;16.20;;;12.97;;
8797;SDS011;4435;50.898;4.734;2023-02-15T11:39:32;18.57;;;13.60;;
8797;SDS011;4435;50.898;4.734;2023-02-15T11:42:01;20.53;;;13.40;;
8797;SDS011;4435;50.898;4.734;2023-02-15T11:44:35;18.13;;;12.87;;
8797;SDS011;4435;50.898;4.734;2023-02-15T11:47:23;19.07;;;13.53;;
8797;SDS011;4435;50.898;4.734;2023-02-15T11:49:49;18.23;;;13.47;;
8797;SDS011;4435;50.898;4.734;2023-02-15T11:52:15;17.57;;;12.87;;
8797;SDS011;4435;50.898;4.734;2023-02-15T11:54:44;18.30;;;13.50;;
8797;SDS011;4435;50.898;4.734;2023-02-15T11:59:52;16.90;;;13.43;;
8797;SDS011;4435;50.898;4.734;2023-02-15T12:02:23;18.33;;;14.03;;
8797;SDS011;4435;50.898;4.734;2023-02-15T12:04:54;21.03;;;14.00;;
8797;SDS011;4435;50.898;4.734;2023-02-15T12:12:36;20.53;;;13.73;;
8797;SDS011;4435;50.898;4.734;2023-02-15T12:15:09;17.93;;;12.60;;
8797;SDS011;4435;50.898;4.734;2023-02-15T12:17:39;20.53;;;13.60;;
8797;SDS011;4435;50.898;4.734;2023-02-15T12:23:03;18.93;;;14.00;;
8797;SDS011;4435;50.898;4.734;2023-02-15T12:30:54;19.90;;;13.20;;
8797;SDS011;4435;50.898;4.734;2023-02-15T12:33:26;20.07;;;13.13;;
8797;SDS011;4435;50.898;4.734;2023-02-15T12:36:11;17.00;;;13.10;;
8797;SDS011;4435;50.898;4.734;2023-02-15T12:38:42;19.67;;;13.07;;
8797;SDS011;4435;50.898;4.734;2023-02-15T12:41:24;19.90;;;13.30;;
8797;SDS011;4435;50.898;4.734;2023-02-15T12:44:07;24.53;;;14.20;;
8797;SDS011;4435;50.898;4.734;2023-02-15T12:47:27;18.20;;;13.27;;
8797;SDS011;4435;50.898;4.734;2023-02-15T12:49:37;16.77;;;12.43;;
8797;SDS011;4435;50.898;4.734;2023-02-15T12:52:22;15.90;;;12.03;;
8797;SDS011;4435;50.898;4.734;2023-02-15T12:54:50;18.27;;;12.67;;
8797;SDS011;4435;50.898;4.734;2023-02-15T12:57:26;20.83;;;12.97;;
8797;SDS011;4435;50.898;4.734;2023-02-15T12:59:54;18.90;;;12.57;;
8797;SDS011;4435;50.898;4.734;2023-02-15T13:02:23;19.17;;;13.10;;
8797;SDS011;4435;50.898;4.734;2023-02-15T13:04:55;18.17;;;12.43;;
8797;SDS011;4435;50.898;4.734;2023-02-15T13:07:24;17.03;;;12.27;;
8797;SDS011;4435;50.898;4.734;2023-02-15T13:09:59;17.93;;;12.97;;
8797;SDS011;4435;50.898;4.734;2023-02-15T13:12:25;18.73;;;12.27;;
8797;SDS011;4435;50.898;4.734;2023-02-15T13:14:53;20.57;;;13.17;;
8797;SDS011;4435;50.898;4.734;2023-02-15T13:17:21;16.43;;;11.90;;
8797;SDS011;4435;50.898;4.734;2023-02-15T13:19:54;17.20;;;12.03;;
8797;SDS011;4435;50.898;4.734;2023-02-15T13:22:28;22.83;;;12.53;;
8797;SDS011;4435;50.898;4.734;2023-02-15T13:25:03;18.10;;;12.87;;
8797;SDS011;4435;50.898;4.734;2023-02-15T13:27:37;17.40;;;12.13;;
8797;SDS011;4435;50.898;4.734;2023-02-15T13:30:25;17.60;;;12.27;;
8797;SDS011;4435;50.898;4.734;2023-02-15T13:33:30;17.27;;;12.57;;
8797;SDS011;4435;50.898;4.734;2023-02-15T13:41:46;20.70;;;12.73;;
8797;SDS011;4435;50.898;4.734;2023-02-15T13:52:31;18.97;;;12.03;;
8797;SDS011;4435;50.898;4.734;2023-02-15T13:55:10;18.47;;;12.23;;
8797;SDS011;4435;50.898;4.734;2023-02-15T14:00:29;17.80;;;11.67;;
8797;SDS011;4435;50.898;4.734;2023-02-15T14:16:58;19.20;;;12.50;;
8797;SDS011;4435;50.898;4.734;2023-02-15T14:19:27;21.07;;;12.27;;
8797;SDS011;4435;50.898;4.734;2023-02-15T14:22:07;17.70;;;12.30;;
8797;SDS011;4435;50.898;4.734;2023-02-15T14:30:15;14.73;;;12.03;;
8797;SDS011;4435;50.898;4.734;2023-02-15T14:32:48;15.00;;;12.07;;
8797;SDS011;4435;50.898;4.734;2023-02-15T14:35:18;16.70;;;11.30;;
8797;SDS011;4435;50.898;4.734;2023-02-15T14:40:33;19.23;;;12.10;;
8797;SDS011;4435;50.898;4.734;2023-02-15T14:45:52;21.40;;;12.20;;
8797;SDS011;4435;50.898;4.734;2023-02-15T14:48:45;17.87;;;11.97;;
8797;SDS011;4435;50.898;4.734;2023-02-15T14:54:12;20.03;;;12.03;;
8797;SDS011;4435;50.898;4.734;2023-02-15T15:07:58;14.73;;;11.93;;
8797;SDS011;4435;50.898;4.734;2023-02-15T15:10:36;15.87;;;11.87;;
8797;SDS011;4435;50.898;4.734;2023-02-15T15:15:55;20.20;;;11.83;;
8797;SDS011;4435;50.898;4.734;2023-02-15T15:21:10;18.80;;;12.47;;
8797;SDS011;4435;50.898;4.734;2023-02-15T15:23:56;15.40;;;11.93;;
8797;SDS011;4435;50.898;4.734;2023-02-15T15:26:26;20.47;;;12.30;;
8797;SDS011;4435;50.898;4.734;2023-02-15T15:28:59;18.53;;;13.17;;
8797;SDS011;4435;50.898;4.734;2023-02-15T15:34:21;16.07;;;12.20;;
8797;SDS011;4435;50.898;4.734;2023-02-15T15:37:03;17.57;;;12.30;;
8797;SDS011;4435;50.898;4.734;2023-02-15T15:45:55;20.07;;;12.53;;
8797;SDS011;4435;50.898;4.734;2023-02-15T15:48:37;24.60;;;13.70;;
8797;SDS011;4435;50.898;4.734;2023-02-15T15:54:16;18.37;;;12.50;;
8797;SDS011;4435;50.898;4.734;2023-02-15T15:56:48;17.50;;;12.40;;
8797;SDS011;4435;50.898;4.734;2023-02-15T15:59:24;21.53;;;12.30;;
8797;SDS011;4435;50.898;4.734;2023-02-15T16:01:53;19.60;;;13.13;;
8797;SDS011;4435;50.898;4.734;2023-02-15T16:04:29;19.37;;;13.73;;
8797;SDS011;4435;50.898;4.734;2023-02-15T16:06:56;20.87;;;12.50;;
8797;SDS011;4435;50.898;4.734;2023-02-15T16:10:05;25.17;;;14.20;;
8797;SDS011;4435;50.898;4.734;2023-02-15T16:12:34;23.57;;;13.50;;
8797;SDS011;4435;50.898;4.734;2023-02-15T16:15:04;24.37;;;13.20;;
8797;SDS011;4435;50.898;4.734;2023-02-15T16:17:44;23.97;;;13.30;;
8797;SDS011;4435;50.898;4.734;2023-02-15T16:20:17;19.63;;;12.70;;
8797;SDS011;4435;50.898;4.734;2023-02-15T16:22:47;21.27;;;12.93;;
8797;SDS011;4435;50.898;4.734;2023-02-15T16:25:30;23.57;;;13.10;;
8797;SDS011;4435;50.898;4.734;2023-02-15T16:28:05;20.57;;;12.67;;
8797;SDS011;4435;50.898;4.734;2023-02-15T16:30:33;21.07;;;13.90;;
8797;SDS011;4435;50.898;4.734;2023-02-15T16:33:04;19.57;;;13.03;;
8797;SDS011;4435;50.898;4.734;2023-02-15T16:35:33;22.90;;;13.70;;
8797;SDS011;4435;50.898;4.734;2023-02-15T16:38:01;17.20;;;12.93;;
8797;SDS011;4435;50.898;4.734;2023-02-15T16:40:31;19.70;;;13.23;;
8797;SDS011;4435;50.898;4.734;2023-02-15T16:43:00;23.80;;;13.60;;
8797;SDS011;4435;50.898;4.734;2023-02-15T16:45:30;21.53;;;13.00;;
8797;SDS011;4435;50.898;4.734;2023-02-15T16:47:57;19.37;;;12.93;;
8797;SDS011;4435;50.898;4.734;2023-02-15T16:50:29;20.57;;;13.60;;
8797;SDS011;4435;50.898;4.734;2023-02-15T16:52:58;18.10;;;12.57;;
8797;SDS011;4435;50.898;4.734;2023-02-15T16:55:26;19.27;;;13.23;;
8797;SDS011;4435;50.898;4.734;2023-02-15T16:58:00;20.50;;;13.53;;
8797;SDS011;4435;50.898;4.734;2023-02-15T17:00:30;24.40;;;13.97;;
8797;SDS011;4435;50.898;4.734;2023-02-15T17:03:00;24.97;;;14.20;;
8797;SDS011;4435;50.898;4.734;2023-02-15T17:05:52;21.17;;;14.57;;
8797;SDS011;4435;50.898;4.734;2023-02-15T17:08:19;19.13;;;13.70;;
8797;SDS011;4435;50.898;4.734;2023-02-15T17:19:02;22.47;;;15.07;;
8797;SDS011;4435;50.898;4.734;2023-02-15T17:21:39;21.57;;;14.83;;
8797;SDS011;4435;50.898;4.734;2023-02-15T17:24:13;24.00;;;14.87;;
8797;SDS011;4435;50.898;4.734;2023-02-15T17:26:42;20.40;;;14.37;;
8797;SDS011;4435;50.898;4.734;2023-02-15T17:31:37;21.20;;;13.97;;
8797;SDS011;4435;50.898;4.734;2023-02-15T17:34:03;19.50;;;13.77;;
8797;SDS011;4435;50.898;4.734;2023-02-15T17:36:30;21.70;;;14.67;;
8797;SDS011;4435;50.898;4.734;2023-02-15T17:41:23;21.60;;;13.70;;
8797;SDS011;4435;50.898;4.734;2023-02-15T17:43:49;19.97;;;14.43;;
8797;SDS011;4435;50.898;4.734;2023-02-15T17:46:16;20.27;;;14.17;;
8797;SDS011;4435;50.898;4.734;2023-02-15T17:48:45;19.53;;;13.97;;
8797;SDS011;4435;50.898;4.734;2023-02-15T17:51:13;21.17;;;14.17;;
8797;SDS011;4435;50.898;4.734;2023-02-15T17:53:40;18.53;;;13.50;;
8797;SDS011;4435;50.898;4.734;2023-02-15T17:56:26;19.53;;;14.57;;
8797;SDS011;4435;50.898;4.734;2023-02-15T17:58:52;18.97;;;14.03;;
8797;SDS011;4435;50.898;4.734;2023-02-15T18:01:18;22.93;;;14.37;;
8797;SDS011;4435;50.898;4.734;2023-02-15T18:04:04;19.17;;;14.23;;
8797;SDS011;4435;50.898;4.734;2023-02-15T18:06:52;19.77;;;14.10;;
8797;SDS011;4435;50.898;4.734;2023-02-15T18:09:36;19.43;;;14.17;;
8797;SDS011;4435;50.898;4.734;2023-02-15T18:14:50;20.50;;;14.33;;
8797;SDS011;4435;50.898;4.734;2023-02-15T18:17:18;20.53;;;14.80;;
8797;SDS011;4435;50.898;4.734;2023-02-15T18:19:51;21.23;;;15.67;;
8797;SDS011;4435;50.898;4.734;2023-02-15T18:22:18;25.07;;;16.80;;